sensor_id;sensor_type;location;lat;lon;timestamp;pressure;altitude;pressure_sealevel;temperature;humidity
63622;BME280;49770;47.544;19.074;2023-04-25T04:12:45;99183.94;;;9.52;100.00
63622;BME280;49770;47.544;19.074;2023-04-25T04:15:57;99183.94;;;9.52;100.00
63622;BME280;49770;47.544;19.074;2023-04-25T04:19:06;99192.13;;;9.06;100.00
63622;BME280;49770;47.544;19.074;2023-04-25T04:22:13;99200.00;;;9.07;100.00
63622;BME280;49770;47.544;19.074;2023-04-25T04:25:20;99191.78;;;8.97;100.00
63622;BME280;49770;47.544;19.074;2023-04-25T04:28:35;99203.09;;;8.99;100.00
63622;BME280;49770;47.544;19.074;2023-04-25T04:31:42;99191.19;;;9.07;100.00
63622;BME280;49770;47.544;19.074;2023-04-25T04:34:47;99195.06;;;9.01;100.00
63622;BME280;49770;47.544;19.074;2023-04-25T04:37:57;99192.16;;;8.91;100.00
63622;BME280;49770;47.544;19.074;2023-04-25T04:41:07;99199.13;;;8.92;100.00
63622;BME280;49770;47.544;19.074;2023-04-25T04:44:16;99202.81;;;9.04;100.00
63622;BME280;49770;47.544;19.074;2023-04-25T04:47:22;99195.66;;;9.06;100.00
63622;BME280;49770;47.544;19.074;2023-04-25T04:50:30;99203.59;;;9.06;100.00
63622;BME280;49770;47.544;19.074;2023-04-25T04:53:40;99201.50;;;8.97;100.00
63622;BME280;49770;47.544;19.074;2023-04-25T04:56:49;99200.75;;;8.95;100.00
63622;BME280;49770;47.544;19.074;2023-04-25T04:59:56;99200.37;;;9.01;100.00
63622;BME280;49770;47.544;19.074;2023-04-25T05:03:04;99204.72;;;9.02;100.00
63622;BME280;49770;47.544;19.074;2023-04-25T05:06:12;99199.34;;;9.03;100.00
63622;BME280;49770;47.544;19.074;2023-04-25T05:09:20;99210.19;;;8.84;100.00
63622;BME280;49770;47.544;19.074;2023-04-25T05:12:34;99206.88;;;8.81;100.00
63622;BME280;49770;47.544;19.074;2023-04-25T05:15:41;99213.41;;;8.75;100.00
63622;BME280;49770;47.544;19.074;2023-04-25T05:18:49;99210.84;;;8.73;100.00
63622;BME280;49770;47.544;19.074;2023-04-25T05:21:57;99216.06;;;8.75;100.00
63622;BME280;49770;47.544;19.074;2023-04-25T05:25:06;99222.47;;;8.71;100.00
63622;BME280;49770;47.544;19.074;2023-04-25T05:28:13;99215.37;;;8.86;100.00
63622;BME280;49770;47.544;19.074;2023-04-25T05:31:22;99214.16;;;8.77;100.00
63622;BME280;49770;47.544;19.074;2023-04-25T05:34:28;99213.28;;;8.76;100.00
63622;BME280;49770;47.544;19.074;2023-04-25T05:37:36;99216.87;;;8.61;100.00
63622;BME280;49770;47.544;19.074;2023-04-25T05:40:44;99212.47;;;8.45;100.00
63622;BME280;49770;47.544;19.074;2023-04-25T05:43:55;99215.91;;;8.31;100.00
63622;BME280;49770;47.544;19.074;2023-04-25T05:47:05;99220.38;;;8.31;100.00
63622;BME280;49770;47.544;19.074;2023-04-25T05:50:17;99220.66;;;8.26;100.00
63622;BME280;49770;47.544;19.074;2023-04-25T06:31:30;99229.13;;;8.31;100.00
63622;BME280;49770;47.544;19.074;2023-04-25T06:34:39;99242.44;;;8.60;100.00
63622;BME280;49770;47.544;19.074;2023-04-25T06:37:43;99239.09;;;8.87;100.00
63622;BME280;49770;47.544;19.074;2023-04-25T06:40:47;99240.03;;;9.01;100.00
63622;BME280;49770;47.544;19.074;2023-04-25T06:43:51;99233.59;;;8.90;100.00
63622;BME280;49770;47.544;19.074;2023-04-25T06:46:59;99238.69;;;8.65;100.00
63622;BME280;49770;47.544;19.074;2023-04-25T06:50:05;99242.88;;;8.83;100.00
63622;BME280;49770;47.544;19.074;2023-04-25T06:53:11;99236.63;;;8.84;100.00
63622;BME280;49770;47.544;19.074;2023-04-25T06:56:16;99237.19;;;9.04;100.00
63622;BME280;49770;47.544;19.074;2023-04-25T06:59:20;99238.44;;;9.13;100.00
63622;BME280;49770;47.544;19.074;2023-04-25T07:02:26;99234.16;;;9.10;100.00
63622;BME280;49770;47.544;19.074;2023-04-25T07:05:29;99230.63;;;9.53;100.00
63622;BME280;49770;47.544;19.074;2023-04-25T07:08:37;99238.09;;;9.47;100.00
63622;BME280;49770;47.544;19.074;2023-04-25T07:11:44;99239.66;;;9.78;100.00
63622;BME280;49770;47.544;19.074;2023-04-25T07:14:49;99233.44;;;9.92;100.00
63622;BME280;49770;47.544;19.074;2023-04-25T07:17:53;99235.41;;;9.61;100.00
63622;BME280;49770;47.544;19.074;2023-04-25T07:20:57;99236.66;;;10.38;100.00
63622;BME280;49770;47.544;19.074;2023-04-25T07:24:04;99239.56;;;10.48;100.00
63622;BME280;49770;47.544;19.074;2023-04-25T07:27:09;99241.06;;;10.65;100.00
63622;BME280;49770;47.544;19.074;2023-04-25T07:30:14;99248.38;;;11.00;100.00
63622;BME280;49770;47.544;19.074;2023-04-25T07:33:19;99241.44;;;11.37;100.00
63622;BME280;49770;47.544;19.074;2023-04-25T07:36:24;99236.72;;;12.15;100.00
63622;BME280;49770;47.544;19.074;2023-04-25T07:39:31;99241.88;;;12.77;100.00
63622;BME280;49770;47.544;19.074;2023-04-25T07:42:39;99243.53;;;12.66;100.00
63622;BME280;49770;47.544;19.074;2023-04-25T07:45:44;99243.81;;;12.39;100.00
63622;BME280;49770;47.544;19.074;2023-04-25T07:48:51;99244.13;;;12.23;100.00
63622;BME280;49770;47.544;19.074;2023-04-25T07:51:57;99251.50;;;12.19;100.00
63622;BME280;49770;47.544;19.074;2023-04-25T07:55:01;99253.97;;;12.92;100.00
63622;BME280;49770;47.544;19.074;2023-04-25T07:58:07;99249.00;;;12.05;100.00
63622;BME280;49770;47.544;19.074;2023-04-25T08:01:13;99249.50;;;13.04;100.00
63622;BME280;49770;47.544;19.074;2023-04-25T08:04:18;99248.34;;;13.87;100.00
63622;BME280;49770;47.544;19.074;2023-04-25T08:07:24;99245.13;;;14.16;100.00
63622;BME280;49770;47.544;19.074;2023-04-25T08:10:30;99242.34;;;13.62;100.00
63622;BME280;49770;47.544;19.074;2023-04-25T08:13:33;99247.37;;;13.88;100.00
63622;BME280;49770;47.544;19.074;2023-04-25T08:16:36;99242.50;;;14.59;100.00
63622;BME280;49770;47.544;19.074;2023-04-25T08:19:39;99249.56;;;15.53;100.00
63622;BME280;49770;47.544;19.074;2023-04-25T08:22:45;99258.59;;;15.21;100.00
63622;BME280;49770;47.544;19.074;2023-04-25T08:25:52;99249.22;;;15.05;100.00
63622;BME280;49770;47.544;19.074;2023-04-25T08:28:56;99252.78;;;14.85;100.00
63622;BME280;49770;47.544;19.074;2023-04-25T08:32:00;99253.91;;;14.07;100.00
63622;BME280;49770;47.544;19.074;2023-04-25T08:35:05;99264.25;;;14.21;100.00
63622;BME280;49770;47.544;19.074;2023-04-25T08:38:08;99243.75;;;14.22;100.00
63622;BME280;49770;47.544;19.074;2023-04-25T08:41:14;99252.66;;;14.11;100.00
63622;BME280;49770;47.544;19.074;2023-04-25T08:44:19;99251.59;;;14.56;100.00
63622;BME280;49770;47.544;19.074;2023-04-25T08:47:29;99262.44;;;14.43;100.00
63622;BME280;49770;47.544;19.074;2023-04-25T08:50:34;99269.06;;;14.27;100.00
63622;BME280;49770;47.544;19.074;2023-04-25T08:53:40;99271.03;;;14.25;100.00
63622;BME280;49770;47.544;19.074;2023-04-25T08:56:48;99277.75;;;14.41;100.00
63622;BME280;49770;47.544;19.074;2023-04-25T08:59:52;99271.56;;;14.40;100.00
63622;BME280;49770;47.544;19.074;2023-04-25T09:02:58;99276.87;;;14.40;100.00
63622;BME280;49770;47.544;19.074;2023-04-25T09:06:05;99277.78;;;14.29;100.00
63622;BME280;49770;47.544;19.074;2023-04-25T09:09:10;99273.94;;;13.78;100.00
63622;BME280;49770;47.544;19.074;2023-04-25T09:12:18;99277.47;;;14.23;100.00
63622;BME280;49770;47.544;19.074;2023-04-25T09:15:25;99281.03;;;15.08;100.00
63622;BME280;49770;47.544;19.074;2023-04-25T09:18:33;99278.81;;;15.14;100.00
63622;BME280;49770;47.544;19.074;2023-04-25T09:21:38;99280.88;;;15.31;100.00
63622;BME280;49770;47.544;19.074;2023-04-25T09:24:44;99287.78;;;15.34;96.40
63622;BME280;49770;47.544;19.074;2023-04-25T09:28:06;99278.72;;;15.25;97.90
63622;BME280;49770;47.544;19.074;2023-04-25T09:31:21;99277.22;;;15.83;96.27
63622;BME280;49770;47.544;19.074;2023-04-25T09:34:27;99285.22;;;15.01;93.76
63622;BME280;49770;47.544;19.074;2023-04-25T09:37:33;99272.50;;;14.93;95.74
63622;BME280;49770;47.544;19.074;2023-04-25T09:40:46;99264.34;;;14.52;97.53
63622;BME280;49770;47.544;19.074;2023-04-25T09:43:56;99268.22;;;15.84;91.23
63622;BME280;49770;47.544;19.074;2023-04-25T09:47:10;99275.59;;;16.41;83.13
63622;BME280;49770;47.544;19.074;2023-04-25T09:50:19;99274.47;;;16.34;82.44
63622;BME280;49770;47.544;19.074;2023-04-25T09:53:25;99275.47;;;16.13;86.80
63622;BME280;49770;47.544;19.074;2023-04-25T09:56:36;99272.28;;;15.28;88.26
63622;BME280;49770;47.544;19.074;2023-04-25T09:59:48;99280.28;;;15.59;86.85
63622;BME280;49770;47.544;19.074;2023-04-25T10:02:55;99278.44;;;16.30;80.69
63622;BME280;49770;47.544;19.074;2023-04-25T10:06:07;99272.66;;;16.05;80.80
63622;BME280;49770;47.544;19.074;2023-04-25T10:09:12;99286.72;;;16.07;78.09
63622;BME280;49770;47.544;19.074;2023-04-25T10:12:18;99263.22;;;16.01;82.54
63622;BME280;49770;47.544;19.074;2023-04-25T10:15:22;99267.13;;;15.46;84.45
63622;BME280;49770;47.544;19.074;2023-04-25T10:18:28;99279.59;;;15.35;84.67
63622;BME280;49770;47.544;19.074;2023-04-25T10:21:32;99275.13;;;14.29;88.25
63622;BME280;49770;47.544;19.074;2023-04-25T10:24:37;99269.87;;;14.61;87.27
63622;BME280;49770;47.544;19.074;2023-04-25T10:27:41;99273.34;;;14.73;86.33
63622;BME280;49770;47.544;19.074;2023-04-25T10:34:04;99265.72;;;13.81;88.60
63622;BME280;49770;47.544;19.074;2023-04-25T10:37:09;99262.19;;;14.25;87.05
63622;BME280;49770;47.544;19.074;2023-04-25T10:40:21;99267.38;;;14.26;89.54
63622;BME280;49770;47.544;19.074;2023-04-25T10:46:34;99266.94;;;14.75;85.92
63622;BME280;49770;47.544;19.074;2023-04-25T10:49:43;99272.31;;;14.64;86.56
63622;BME280;49770;47.544;19.074;2023-04-25T10:52:46;99277.72;;;14.74;87.67
63622;BME280;49770;47.544;19.074;2023-04-25T10:55:51;99279.22;;;15.40;83.67
63622;BME280;49770;47.544;19.074;2023-04-25T10:59:08;99274.09;;;15.68;78.29
63622;BME280;49770;47.544;19.074;2023-04-25T11:02:13;99267.38;;;15.84;75.77
63622;BME280;49770;47.544;19.074;2023-04-25T11:05:31;99287.00;;;16.04;76.59
63622;BME280;49770;47.544;19.074;2023-04-25T11:08:48;99290.53;;;16.24;70.86
63622;BME280;49770;47.544;19.074;2023-04-25T11:11:55;99289.81;;;16.71;73.32
63622;BME280;49770;47.544;19.074;2023-04-25T11:15:04;99296.44;;;16.48;71.76
63622;BME280;49770;47.544;19.074;2023-04-25T11:18:07;99292.50;;;16.12;72.05
63622;BME280;49770;47.544;19.074;2023-04-25T11:21:13;99297.56;;;16.35;70.82
63622;BME280;49770;47.544;19.074;2023-04-25T11:24:17;99311.25;;;16.62;68.59
63622;BME280;49770;47.544;19.074;2023-04-25T11:27:21;99309.84;;;16.38;69.40
63622;BME280;49770;47.544;19.074;2023-04-25T11:30:27;99313.09;;;16.71;70.36
63622;BME280;49770;47.544;19.074;2023-04-25T11:33:32;99310.50;;;16.00;71.52
63622;BME280;49770;47.544;19.074;2023-04-25T11:36:38;99303.47;;;15.99;71.63
63622;BME280;49770;47.544;19.074;2023-04-25T11:39:43;99300.81;;;16.78;68.27
63622;BME280;49770;47.544;19.074;2023-04-25T11:42:49;99309.72;;;16.79;70.89
63622;BME280;49770;47.544;19.074;2023-04-25T11:45:58;99309.56;;;16.21;71.48
63622;BME280;49770;47.544;19.074;2023-04-25T11:49:02;99307.72;;;16.22;68.46
63622;BME280;49770;47.544;19.074;2023-04-25T11:52:08;99321.50;;;15.66;69.12
63622;BME280;49770;47.544;19.074;2023-04-25T11:55:15;99317.97;;;15.66;74.12
63622;BME280;49770;47.544;19.074;2023-04-25T11:58:20;99319.28;;;14.88;72.46
63622;BME280;49770;47.544;19.074;2023-04-25T12:01:34;99315.22;;;14.93;72.37
63622;BME280;49770;47.544;19.074;2023-04-25T12:04:41;99325.50;;;14.98;70.41
63622;BME280;49770;47.544;19.074;2023-04-25T12:08:15;99335.16;;;14.89;68.18
63622;BME280;49770;47.544;19.074;2023-04-25T12:11:22;99331.59;;;14.79;70.46
63622;BME280;49770;47.544;19.074;2023-04-25T12:14:28;99332.31;;;14.69;69.52
63622;BME280;49770;47.544;19.074;2023-04-25T12:17:34;99341.22;;;14.59;75.57
63622;BME280;49770;47.544;19.074;2023-04-25T12:20:41;99333.88;;;14.07;75.82
63622;BME280;49770;47.544;19.074;2023-04-25T12:23:48;99321.53;;;14.71;74.61
63622;BME280;49770;47.544;19.074;2023-04-25T12:26:59;99334.56;;;15.59;73.92
63622;BME280;49770;47.544;19.074;2023-04-25T12:30:05;99320.44;;;15.88;70.12
63622;BME280;49770;47.544;19.074;2023-04-25T12:33:13;99323.37;;;16.46;67.97
63622;BME280;49770;47.544;19.074;2023-04-25T12:36:17;99311.38;;;16.80;67.52
63622;BME280;49770;47.544;19.074;2023-04-25T12:39:22;99321.28;;;17.37;66.38
63622;BME280;49770;47.544;19.074;2023-04-25T12:42:26;99310.50;;;17.09;58.19
63622;BME280;49770;47.544;19.074;2023-04-25T12:45:29;99296.69;;;17.14;57.93
63622;BME280;49770;47.544;19.074;2023-04-25T12:48:33;99308.44;;;16.14;58.62
63622;BME280;49770;47.544;19.074;2023-04-25T12:51:37;99310.78;;;15.56;59.95
63622;BME280;49770;47.544;19.074;2023-04-25T12:54:41;99295.72;;;15.96;57.60
63622;BME280;49770;47.544;19.074;2023-04-25T12:57:46;99299.25;;;16.07;56.34
63622;BME280;49770;47.544;19.074;2023-04-25T13:00:49;99286.03;;;16.35;56.22
63622;BME280;49770;47.544;19.074;2023-04-25T13:03:54;99294.88;;;16.06;55.66
63622;BME280;49770;47.544;19.074;2023-04-25T13:06:58;99298.91;;;15.90;55.60
63622;BME280;49770;47.544;19.074;2023-04-25T13:10:05;99291.50;;;15.94;55.32
63622;BME280;49770;47.544;19.074;2023-04-25T13:13:12;99292.78;;;16.19;54.96
63622;BME280;49770;47.544;19.074;2023-04-25T13:16:21;99291.28;;;15.85;52.85
63622;BME280;49770;47.544;19.074;2023-04-25T13:19:27;99292.22;;;16.15;51.76
63622;BME280;49770;47.544;19.074;2023-04-25T13:22:32;99294.91;;;16.25;50.63
63622;BME280;49770;47.544;19.074;2023-04-25T13:25:38;99286.03;;;16.35;51.34
63622;BME280;49770;47.544;19.074;2023-04-25T13:28:42;99286.84;;;16.06;52.58
63622;BME280;49770;47.544;19.074;2023-04-25T13:31:48;99279.56;;;16.37;48.82
63622;BME280;49770;47.544;19.074;2023-04-25T13:34:53;99278.44;;;16.20;47.86
63622;BME280;49770;47.544;19.074;2023-04-25T13:37:58;99262.84;;;15.74;49.63
63622;BME280;49770;47.544;19.074;2023-04-25T13:41:02;99285.84;;;15.46;47.24
63622;BME280;49770;47.544;19.074;2023-04-25T13:44:07;99285.09;;;15.34;46.48
63622;BME280;49770;47.544;19.074;2023-04-25T13:47:11;99295.53;;;15.47;47.41
63622;BME280;49770;47.544;19.074;2023-04-25T13:50:16;99275.28;;;15.13;46.59
63622;BME280;49770;47.544;19.074;2023-04-25T13:53:23;99276.97;;;15.14;47.95
63622;BME280;49770;47.544;19.074;2023-04-25T13:56:29;99275.13;;;15.36;47.52
63622;BME280;49770;47.544;19.074;2023-04-25T13:59:36;99279.41;;;15.58;46.15
63622;BME280;49770;47.544;19.074;2023-04-25T14:02:44;99269.00;;;15.55;47.46
63622;BME280;49770;47.544;19.074;2023-04-25T14:05:56;99274.50;;;15.63;46.90
63622;BME280;49770;47.544;19.074;2023-04-25T14:09:04;99282.56;;;15.73;48.63
63622;BME280;49770;47.544;19.074;2023-04-25T14:12:14;99278.81;;;15.96;46.87
63622;BME280;49770;47.544;19.074;2023-04-25T14:15:22;99277.22;;;15.83;48.09
63622;BME280;49770;47.544;19.074;2023-04-25T14:18:32;99273.81;;;15.61;46.39
63622;BME280;49770;47.544;19.074;2023-04-25T14:21:39;99279.34;;;15.39;47.15
63622;BME280;49770;47.544;19.074;2023-04-25T14:24:47;99272.56;;;15.75;47.63
63622;BME280;49770;47.544;19.074;2023-04-25T14:27:53;99273.31;;;15.87;47.45
63622;BME280;49770;47.544;19.074;2023-04-25T14:30:59;99271.72;;;15.65;47.30
63622;BME280;49770;47.544;19.074;2023-04-25T14:34:07;99280.38;;;15.47;47.30
63622;BME280;49770;47.544;19.074;2023-04-25T14:37:14;99278.84;;;15.55;46.70
63622;BME280;49770;47.544;19.074;2023-04-25T14:40:20;99287.44;;;15.68;47.06
63622;BME280;49770;47.544;19.074;2023-04-25T14:43:30;99277.97;;;15.54;46.39
63622;BME280;49770;47.544;19.074;2023-04-25T14:46:38;99268.53;;;15.40;47.58
63622;BME280;49770;47.544;19.074;2023-04-25T14:49:46;99275.00;;;15.38;46.85
63622;BME280;49770;47.544;19.074;2023-04-25T14:53:00;99278.16;;;15.21;46.17
63622;BME280;49770;47.544;19.074;2023-04-25T14:56:07;99271.41;;;14.75;47.85
63622;BME280;49770;47.544;19.074;2023-04-25T14:59:13;99267.53;;;14.79;49.61
63622;BME280;49770;47.544;19.074;2023-04-25T15:02:21;99283.59;;;14.89;48.75
63622;BME280;49770;47.544;19.074;2023-04-25T15:05:25;99268.84;;;14.73;47.46
63622;BME280;49770;47.544;19.074;2023-04-25T15:08:32;99269.63;;;14.64;48.75
63622;BME280;49770;47.544;19.074;2023-04-25T15:11:38;99279.56;;;14.62;48.47
63622;BME280;49770;47.544;19.074;2023-04-25T15:14:43;99279.97;;;14.57;49.93
63622;BME280;49770;47.544;19.074;2023-04-25T15:17:48;99275.13;;;14.84;48.46
63622;BME280;49770;47.544;19.074;2023-04-25T15:21:02;99282.16;;;14.85;51.13
63622;BME280;49770;47.544;19.074;2023-04-25T15:24:10;99286.34;;;14.77;49.57
63622;BME280;49770;47.544;19.074;2023-04-25T15:27:19;99278.09;;;14.69;48.65
63622;BME280;49770;47.544;19.074;2023-04-25T15:30:28;99287.00;;;14.58;47.28
63622;BME280;49770;47.544;19.074;2023-04-25T15:33:37;99274.78;;;14.77;47.75
63622;BME280;49770;47.544;19.074;2023-04-25T15:36:44;99280.31;;;14.64;50.76
63622;BME280;49770;47.544;19.074;2023-04-25T15:40:01;99281.00;;;14.77;48.56
